createdAt,value
2023-05-21T00:01:26.256Z,15.82
2023-05-21T00:03:50.101Z,15.45
2023-05-21T00:06:15.681Z,12.75
2023-05-21T00:08:39.028Z,13.63
2023-05-21T00:11:02.530Z,16.77
2023-05-21T00:13:25.886Z,14.05
2023-05-21T00:15:49.193Z,14.25
2023-05-21T00:18:12.569Z,14.25
2023-05-21T00:20:37.450Z,13.60
2023-05-21T00:23:08.289Z,13.98
2023-05-21T00:25:32.300Z,15.00
2023-05-21T00:28:23.541Z,13.70
2023-05-21T00:30:47.321Z,13.65
2023-05-21T00:33:13.888Z,16.08
2023-05-21T00:35:37.460Z,15.93
2023-05-21T00:38:03.095Z,16.33
2023-05-21T00:40:26.721Z,18.42
2023-05-21T00:42:50.136Z,16.13
2023-05-21T00:45:14.824Z,16.10
2023-05-21T00:47:39.255Z,15.40
2023-05-21T00:50:03.711Z,12.38
2023-05-21T00:52:27.568Z,16.40
2023-05-21T00:54:53.078Z,13.48
2023-05-21T00:57:17.649Z,14.10
2023-05-21T00:59:41.428Z,16.13
2023-05-21T01:02:06.802Z,19.20
2023-05-21T01:04:30.490Z,15.55
2023-05-21T01:06:56.203Z,14.75
2023-05-21T01:09:19.830Z,14.07
2023-05-21T01:11:47.904Z,10.95
2023-05-21T01:14:13.412Z,12.00
2023-05-21T01:16:39.303Z,11.55
2023-05-21T01:19:04.264Z,10.88
2023-05-21T01:21:29.401Z,13.50
2023-05-21T01:23:54.182Z,10.85
2023-05-21T01:26:18.469Z,11.45
2023-05-21T01:28:42.918Z,9.77
2023-05-21T01:31:43.847Z,12.57
2023-05-21T01:34:11.810Z,12.00
2023-05-21T01:37:19.146Z,11.20
2023-05-21T01:39:57.049Z,12.35
2023-05-21T01:43:16.439Z,10.50
2023-05-21T01:46:11.096Z,10.18
2023-05-21T01:48:37.812Z,9.63
2023-05-21T01:51:13.917Z,9.13
2023-05-21T01:53:40.648Z,10.95
2023-05-21T01:56:15.977Z,13.57
2023-05-21T01:58:39.675Z,12.63
2023-05-21T02:01:04.681Z,10.75
2023-05-21T02:03:43.355Z,11.38
2023-05-21T02:06:11.082Z,13.73
2023-05-21T02:08:38.563Z,11.05
2023-05-21T02:11:05.928Z,12.75
2023-05-21T02:13:32.390Z,10.32
2023-05-21T02:16:01.596Z,10.15
2023-05-21T02:18:26.393Z,9.77
2023-05-21T02:20:49.751Z,12.05
2023-05-21T02:23:13.208Z,12.07
2023-05-21T02:25:37.005Z,11.07
2023-05-21T02:28:02.516Z,13.13
2023-05-21T02:30:26.212Z,12.13
2023-05-21T02:32:50.707Z,12.80
2023-05-21T02:35:14.957Z,15.13
2023-05-21T02:37:40.397Z,9.95
2023-05-21T02:40:05.987Z,10.30
2023-05-21T02:42:30.041Z,10.98
2023-05-21T02:44:54.929Z,9.07
2023-05-21T02:47:19.721Z,13.73
2023-05-21T02:49:43.095Z,11.10
2023-05-21T02:52:07.189Z,12.60
2023-05-21T02:54:30.478Z,9.90
2023-05-21T02:56:54.200Z,11.43
2023-05-21T02:59:17.546Z,11.27
2023-05-21T03:01:44.952Z,11.48
2023-05-21T03:04:08.471Z,11.57
2023-05-21T03:06:32.222Z,11.95
2023-05-21T03:08:55.773Z,12.52
2023-05-21T03:11:22.500Z,10.23
2023-05-21T03:13:46.395Z,10.52
2023-05-21T03:16:09.897Z,10.15
2023-05-21T03:18:34.677Z,10.30
2023-05-21T03:20:59.002Z,9.73
2023-05-21T03:23:24.939Z,12.68
2023-05-21T03:25:48.619Z,11.02
2023-05-21T03:28:12.497Z,10.40
2023-05-21T03:30:40.305Z,10.65
2023-05-21T03:33:23.990Z,11.20
2023-05-21T03:35:48.689Z,10.25
2023-05-21T03:38:13.071Z,12.13
2023-05-21T03:40:36.367Z,13.18
2023-05-21T03:43:02.581Z,11.77
2023-05-21T03:46:18.532Z,12.25
2023-05-21T03:49:15.875Z,11.68
2023-05-21T03:52:33.143Z,10.68
2023-05-21T03:55:26.617Z,12.32
2023-05-21T03:57:59.303Z,13.80
2023-05-21T04:00:24.585Z,13.43
2023-05-21T04:02:48.116Z,10.82
2023-05-21T04:05:13.525Z,14.63
2023-05-21T04:07:38.992Z,11.38
2023-05-21T04:10:04.106Z,13.38
2023-05-21T04:12:28.828Z,11.20
2023-05-21T04:14:59.047Z,13.07
2023-05-21T04:17:28.532Z,12.30
2023-05-21T04:19:53.389Z,11.07
2023-05-21T04:22:16.975Z,12.27
2023-05-21T04:24:41.667Z,11.88
2023-05-21T04:27:14.117Z,10.85
2023-05-21T04:29:42.591Z,11.93
2023-05-21T04:32:07.367Z,12.35
2023-05-21T04:34:32.841Z,11.25
2023-05-21T04:36:56.923Z,17.35
2023-05-21T04:39:21.623Z,12.60
2023-05-21T04:41:47.158Z,13.10
2023-05-21T04:44:14.974Z,12.38
2023-05-21T04:46:41.796Z,10.32
2023-05-21T04:49:05.358Z,11.35
2023-05-21T04:51:28.676Z,12.82
2023-05-21T04:53:52.048Z,14.00
2023-05-21T04:56:15.716Z,13.35
2023-05-21T04:58:41.625Z,11.07
2023-05-21T05:01:05.068Z,8.85
2023-05-21T05:03:28.520Z,10.52
2023-05-21T05:05:51.876Z,10.60
2023-05-21T05:08:17.120Z,10.25
2023-05-21T05:10:40.435Z,11.55
2023-05-21T05:13:03.805Z,10.32
2023-05-21T05:15:28.642Z,12.55
2023-05-21T05:17:52.146Z,9.82
2023-05-21T05:20:15.720Z,10.70
2023-05-21T05:22:39.134Z,10.50
2023-05-21T05:25:02.442Z,11.55
2023-05-21T05:27:25.808Z,13.13
2023-05-21T05:29:49.875Z,10.60
2023-05-21T05:32:14.887Z,11.13
2023-05-21T05:34:39.333Z,10.25
2023-05-21T05:37:02.912Z,11.02
2023-05-21T05:39:26.335Z,14.18
2023-05-21T05:41:49.682Z,11.75
2023-05-21T05:44:13.410Z,11.02
2023-05-21T05:46:36.999Z,11.55
2023-05-21T05:49:01.869Z,10.32
2023-05-21T05:51:25.146Z,12.23
2023-05-21T05:53:48.448Z,11.13
2023-05-21T05:56:11.845Z,11.40
2023-05-21T05:58:35.535Z,13.90
2023-05-21T06:01:07.833Z,10.70
2023-05-21T06:03:31.602Z,10.45
2023-05-21T06:05:56.595Z,11.07
2023-05-21T06:08:20.782Z,13.65
2023-05-21T06:10:44.284Z,15.48
2023-05-21T06:13:07.919Z,15.05
2023-05-21T06:15:32.072Z,10.77
2023-05-21T06:17:55.687Z,14.15
2023-05-21T06:20:19.687Z,10.93
2023-05-21T06:22:44.514Z,12.23
2023-05-21T06:25:10.649Z,15.30
2023-05-21T06:27:34.586Z,10.63
2023-05-21T06:29:59.065Z,14.05
2023-05-21T06:32:25.894Z,10.93
2023-05-21T06:34:49.607Z,12.05
2023-05-21T06:37:20.142Z,12.13
2023-05-21T06:39:44.942Z,12.00
2023-05-21T06:42:08.252Z,13.48
2023-05-21T06:44:51.870Z,13.52
2023-05-21T06:47:27.306Z,13.25
2023-05-21T06:49:50.881Z,13.00
2023-05-21T06:52:14.270Z,13.15
2023-05-21T06:54:37.647Z,15.45
2023-05-21T06:57:02.854Z,15.55
2023-05-21T06:59:27.819Z,15.63
2023-05-21T07:01:51.179Z,13.32
2023-05-21T07:04:14.789Z,15.70
2023-05-21T07:06:39.951Z,14.55
2023-05-21T07:09:03.747Z,14.38
2023-05-21T07:11:28.983Z,16.40
2023-05-21T07:13:54.794Z,19.55
2023-05-21T07:16:18.931Z,15.48
2023-05-21T07:18:44.559Z,13.65
2023-05-21T07:21:08.031Z,12.75
2023-05-21T07:23:32.756Z,14.20
2023-05-21T07:25:56.162Z,16.98
2023-05-21T07:28:20.399Z,19.33
2023-05-21T07:30:45.180Z,15.98
2023-05-21T07:33:12.672Z,14.55
2023-05-21T07:35:36.540Z,18.38
2023-05-21T07:38:00.148Z,14.43
2023-05-21T07:40:24.202Z,15.18
2023-05-21T07:42:47.540Z,16.48
2023-05-21T07:45:13.893Z,14.98
2023-05-21T07:47:41.954Z,16.15
2023-05-21T07:50:07.619Z,15.95
2023-05-21T07:52:30.981Z,14.20
2023-05-21T07:54:54.580Z,14.25
2023-05-21T07:57:19.603Z,14.98
2023-05-21T07:59:58.522Z,14.57
2023-05-21T08:02:22.326Z,12.40
2023-05-21T08:04:47.264Z,14.30
2023-05-21T08:07:11.062Z,16.08
2023-05-21T08:09:34.375Z,12.13
2023-05-21T08:11:57.761Z,11.82
2023-05-21T08:14:21.480Z,16.08
2023-05-21T08:16:45.440Z,12.25
2023-05-21T08:19:08.841Z,13.65
2023-05-21T08:21:34.112Z,13.70
2023-05-21T08:23:59.955Z,13.52
2023-05-21T08:26:23.682Z,14.27
2023-05-21T08:28:47.532Z,15.05
2023-05-21T08:31:11.210Z,13.05
2023-05-21T08:33:38.392Z,14.57
2023-05-21T08:36:02.561Z,15.40
2023-05-21T08:38:45.212Z,15.65
2023-05-21T08:41:14.009Z,15.98
2023-05-21T08:43:40.033Z,15.00
2023-05-21T08:46:05.392Z,13.13
2023-05-21T08:48:33.361Z,14.82
2023-05-21T08:50:56.743Z,13.05
2023-05-21T08:53:28.783Z,14.75
2023-05-21T08:55:57.274Z,13.32
2023-05-21T08:58:25.778Z,14.40
2023-05-21T09:00:50.718Z,13.75
2023-05-21T09:03:15.956Z,12.32
2023-05-21T09:05:41.774Z,15.50
2023-05-21T09:08:09.087Z,13.90
2023-05-21T09:10:54.226Z,16.35
2023-05-21T09:13:22.337Z,14.43
2023-05-21T09:15:47.698Z,12.68
2023-05-21T09:18:13.519Z,14.90
2023-05-21T09:21:27.284Z,16.70
2023-05-21T09:24:06.097Z,15.88
2023-05-21T09:26:30.974Z,13.80
2023-05-21T09:29:01.536Z,15.32
2023-05-21T09:31:25.898Z,15.00
2023-05-21T09:33:49.689Z,13.98
2023-05-21T09:36:14.369Z,14.23
2023-05-21T09:38:39.442Z,16.08
2023-05-21T09:41:06.748Z,14.13
2023-05-21T09:43:33.029Z,15.80
2023-05-21T09:46:01.290Z,14.65
2023-05-21T09:48:38.479Z,18.00
2023-05-21T09:51:16.553Z,15.70
2023-05-21T09:53:45.901Z,13.40
2023-05-21T09:56:10.234Z,15.52
2023-05-21T09:58:36.145Z,15.10
2023-05-21T10:01:00.727Z,14.25
2023-05-21T10:03:26.758Z,15.90
2023-05-21T10:05:52.624Z,14.02
2023-05-21T10:08:20.011Z,18.58
2023-05-21T10:10:44.472Z,18.73
2023-05-21T10:13:10.559Z,16.85
2023-05-21T10:15:41.454Z,15.60
2023-05-21T10:18:06.257Z,15.85
2023-05-21T10:20:30.396Z,14.82
2023-05-21T10:22:54.492Z,15.90
2023-05-21T10:25:18.719Z,15.18
2023-05-21T10:27:43.201Z,21.63
2023-05-21T10:30:08.675Z,16.02
2023-05-21T10:32:35.047Z,16.55
2023-05-21T10:35:01.460Z,15.80
2023-05-21T10:37:27.548Z,15.18
2023-05-21T10:39:51.595Z,19.55
2023-05-21T10:42:22.876Z,16.52
2023-05-21T10:45:06.546Z,16.75
2023-05-21T10:47:54.711Z,15.20
2023-05-21T10:51:16.799Z,17.20
2023-05-21T10:54:16.894Z,16.02
2023-05-21T10:56:44.109Z,16.02
2023-05-21T10:59:22.987Z,19.00
2023-05-21T11:01:46.755Z,14.23
2023-05-21T11:04:14.517Z,16.63
2023-05-21T11:06:37.911Z,17.38
2023-05-21T11:09:04.886Z,17.23
2023-05-21T11:11:46.056Z,20.98
2023-05-21T11:14:43.544Z,16.88
2023-05-21T11:17:13.681Z,18.60
2023-05-21T11:19:41.068Z,16.23
2023-05-21T11:22:11.787Z,19.02
2023-05-21T11:24:38.591Z,15.93
2023-05-21T11:27:04.949Z,16.63
2023-05-21T11:29:44.703Z,15.63
2023-05-21T11:32:10.372Z,17.40
2023-05-21T11:34:41.806Z,17.38
2023-05-21T11:37:26.704Z,17.35
2023-05-21T11:39:51.113Z,18.02
2023-05-21T11:42:15.305Z,15.90
2023-05-21T11:44:42.278Z,20.42
2023-05-21T11:47:06.814Z,22.15
2023-05-21T11:49:30.276Z,16.52
2023-05-21T11:51:55.130Z,15.82
2023-05-21T11:54:19.186Z,16.40
2023-05-21T11:56:42.558Z,18.13
2023-05-21T11:59:05.801Z,19.85
2023-05-21T12:01:31.205Z,21.40
2023-05-21T12:03:54.627Z,14.75
2023-05-21T12:06:18.522Z,22.80
2023-05-21T12:08:43.384Z,14.88
2023-05-21T12:11:06.995Z,18.10
2023-05-21T12:13:30.298Z,18.80
2023-05-21T12:15:54.461Z,20.00
2023-05-21T12:18:17.792Z,18.20
2023-05-21T12:20:41.148Z,18.67
2023-05-21T12:23:04.530Z,15.98
2023-05-21T12:25:30.384Z,21.23
2023-05-21T12:27:58.321Z,15.25
2023-05-21T12:30:22.285Z,18.50
2023-05-21T12:32:45.649Z,19.02
2023-05-21T12:35:09.802Z,18.45
2023-05-21T12:37:35.492Z,16.98
2023-05-21T12:40:01.345Z,14.77
2023-05-21T12:42:31.123Z,14.07
2023-05-21T12:46:17.355Z,16.70
2023-05-21T12:48:40.959Z,16.48
2023-05-21T12:51:04.520Z,17.08
2023-05-21T12:53:38.927Z,17.38
2023-05-21T12:56:10.732Z,14.10
2023-05-21T12:58:35.266Z,18.80
2023-05-21T13:00:58.575Z,17.02
2023-05-21T13:03:25.070Z,15.85
2023-05-21T13:05:48.428Z,15.50
2023-05-21T13:08:14.085Z,17.73
2023-05-21T13:10:37.611Z,14.65
2023-05-21T13:13:01.716Z,16.00
2023-05-21T13:15:25.148Z,15.55
2023-05-21T13:17:50.156Z,17.77
2023-05-21T13:20:18.359Z,18.13
2023-05-21T13:22:43.426Z,17.30
2023-05-21T13:25:09.677Z,16.65
2023-05-21T13:27:33.079Z,16.30
2023-05-21T13:29:56.446Z,14.50
2023-05-21T13:32:19.868Z,17.40
2023-05-21T13:34:43.352Z,13.98
2023-05-21T13:37:08.334Z,14.95
2023-05-21T13:39:31.733Z,15.50
2023-05-21T13:41:55.356Z,17.75
2023-05-21T13:44:18.695Z,15.75
2023-05-21T13:46:42.273Z,14.63
2023-05-21T13:49:05.627Z,13.88
2023-05-21T13:51:38.561Z,15.57
2023-05-21T13:54:04.178Z,17.05
2023-05-21T13:56:27.511Z,15.25
2023-05-21T13:58:50.916Z,16.05
2023-05-21T14:01:14.272Z,15.20
2023-05-21T14:03:37.534Z,14.52
2023-05-21T14:06:01.071Z,14.65
2023-05-21T14:08:27.476Z,13.65
2023-05-21T14:10:52.377Z,15.02
2023-05-21T14:13:20.005Z,16.55
2023-05-21T14:15:44.223Z,14.13
2023-05-21T14:18:12.072Z,16.73
2023-05-21T14:20:35.488Z,16.23
2023-05-21T14:22:58.733Z,16.08
2023-05-21T14:25:22.155Z,16.55
2023-05-21T14:27:46.894Z,15.63
2023-05-21T14:30:11.551Z,16.85
2023-05-21T14:32:35.277Z,14.82
2023-05-21T14:35:00.493Z,16.38
2023-05-21T14:37:23.836Z,15.73
2023-05-21T14:39:47.120Z,15.02
2023-05-21T14:42:10.426Z,15.07
2023-05-21T14:44:35.051Z,13.82
2023-05-21T14:46:59.077Z,17.77
2023-05-21T14:49:22.433Z,14.40
2023-05-21T14:51:47.478Z,15.10
2023-05-21T14:54:10.840Z,15.50
2023-05-21T14:56:34.662Z,13.82
2023-05-21T14:58:58.039Z,14.27
2023-05-21T15:01:23.372Z,13.00
2023-05-21T15:03:46.773Z,14.52
2023-05-21T15:06:10.548Z,13.80
2023-05-21T15:08:33.897Z,14.18
2023-05-21T15:10:58.149Z,13.32
2023-05-21T15:13:21.693Z,15.93
2023-05-21T15:15:45.006Z,14.73
2023-05-21T15:18:09.775Z,13.90
2023-05-21T15:20:33.118Z,15.13
2023-05-21T15:23:08.783Z,16.38
2023-05-21T15:25:39.229Z,14.55
2023-05-21T15:28:02.741Z,14.35
2023-05-21T15:30:27.298Z,16.02
2023-05-21T15:32:50.619Z,13.07
2023-05-21T15:35:15.503Z,14.00
2023-05-21T15:37:38.848Z,13.10
2023-05-21T15:40:02.331Z,13.65
2023-05-21T15:42:25.640Z,15.02
2023-05-21T15:44:48.958Z,15.95
2023-05-21T15:47:12.181Z,16.02
2023-05-21T15:49:35.901Z,14.10
2023-05-21T15:52:00.840Z,14.02
2023-05-21T15:54:24.189Z,14.43
2023-05-21T15:56:47.471Z,13.25
2023-05-21T15:59:11.066Z,13.82
2023-05-21T16:01:34.600Z,14.35
2023-05-21T16:03:58.054Z,13.77
2023-05-21T16:06:21.417Z,15.02
2023-05-21T16:08:46.064Z,14.18
2023-05-21T16:11:09.355Z,14.57
2023-05-21T16:13:32.598Z,13.80
2023-05-21T16:15:55.942Z,13.38
2023-05-21T16:18:19.383Z,15.48
2023-05-21T16:20:42.595Z,17.17
2023-05-21T16:23:06.477Z,14.68
2023-05-21T16:25:31.183Z,13.68
2023-05-21T16:27:54.441Z,15.10
2023-05-21T16:30:17.884Z,16.55
2023-05-21T16:32:41.385Z,15.82
2023-05-21T16:35:06.039Z,15.52
2023-05-21T16:37:29.342Z,13.50
2023-05-21T16:39:52.710Z,13.70
2023-05-21T16:42:17.381Z,14.60
2023-05-21T16:44:40.832Z,15.13
2023-05-21T16:47:04.369Z,15.00
2023-05-21T16:49:28.911Z,15.32
2023-05-21T16:51:52.243Z,16.50
2023-05-21T16:54:15.574Z,15.98
2023-05-21T16:56:39.319Z,14.45
2023-05-21T16:59:03.964Z,16.13
2023-05-21T17:01:27.556Z,14.07
2023-05-21T17:03:51.260Z,14.75
2023-05-21T17:06:15.054Z,14.48
2023-05-21T17:08:38.342Z,13.88
2023-05-21T17:11:01.691Z,15.93
2023-05-21T17:13:25.024Z,14.90
2023-05-21T17:15:49.840Z,13.07
2023-05-21T17:18:13.154Z,15.60
2023-05-21T17:20:36.603Z,13.20
2023-05-21T17:22:59.897Z,13.23
2023-05-21T17:25:25.124Z,12.88
2023-05-21T17:27:48.575Z,13.95
2023-05-21T17:30:13.160Z,14.35
2023-05-21T17:32:37.933Z,13.90
2023-05-21T17:35:01.320Z,13.95
2023-05-21T17:37:24.635Z,13.63
2023-05-21T17:39:48.023Z,13.43
2023-05-21T17:42:11.373Z,15.00
2023-05-21T17:44:34.668Z,15.00
2023-05-21T17:46:58.046Z,15.55
2023-05-21T17:49:22.723Z,14.75
2023-05-21T17:51:46.495Z,15.43
2023-05-21T17:54:09.847Z,13.48
2023-05-21T17:56:34.327Z,14.48
2023-05-21T17:58:57.588Z,15.05
2023-05-21T18:01:22.088Z,13.73
2023-05-21T18:03:45.499Z,13.68
2023-05-21T18:06:10.184Z,13.68
2023-05-21T18:08:33.539Z,14.82
2023-05-21T18:10:57.924Z,12.40
2023-05-21T18:13:21.257Z,13.05
2023-05-21T18:15:44.588Z,14.70
2023-05-21T18:18:07.904Z,15.00
2023-05-21T18:20:31.309Z,14.13
2023-05-21T18:22:56.005Z,13.25
2023-05-21T18:25:19.324Z,14.68
2023-05-21T18:27:42.608Z,15.02
2023-05-21T18:30:08.142Z,14.93
2023-05-21T18:32:32.650Z,14.23
2023-05-21T18:34:56.547Z,15.35
2023-05-21T18:37:20.083Z,14.18
2023-05-21T18:39:44.728Z,14.55
2023-05-21T18:42:13.406Z,19.88
2023-05-21T18:44:37.504Z,16.95
2023-05-21T18:47:01.731Z,15.40
2023-05-21T18:49:25.175Z,14.63
2023-05-21T18:51:48.500Z,14.48
2023-05-21T18:54:11.745Z,18.30
2023-05-21T18:56:36.768Z,14.57
2023-05-21T18:59:00.109Z,14.13
2023-05-21T19:01:23.502Z,14.60
2023-05-21T19:03:46.871Z,14.50
2023-05-21T19:06:10.186Z,13.68
2023-05-21T19:08:33.505Z,16.73
2023-05-21T19:10:57.390Z,20.38
2023-05-21T19:13:22.115Z,29.92
2023-05-21T19:15:48.007Z,29.38
2023-05-21T19:18:11.315Z,32.30
2023-05-21T19:20:34.684Z,23.50
2023-05-21T19:22:58.179Z,25.70
2023-05-21T19:25:21.708Z,24.70
2023-05-21T19:27:58.524Z,27.25
2023-05-21T19:30:23.280Z,23.00
2023-05-21T19:32:47.958Z,30.17
2023-05-21T19:35:11.505Z,25.10
2023-05-21T19:37:34.830Z,26.33
2023-05-21T19:39:58.300Z,25.00
2023-05-21T19:42:22.117Z,26.23
2023-05-21T19:44:45.558Z,27.48
2023-05-21T19:47:10.566Z,30.38
2023-05-21T19:49:33.976Z,25.45
2023-05-21T19:51:57.300Z,24.17
2023-05-21T19:54:21.044Z,27.60
2023-05-21T19:56:44.354Z,21.73
2023-05-21T19:59:07.794Z,32.47
2023-05-21T20:01:33.278Z,28.23
2023-05-21T20:03:58.635Z,26.08
2023-05-21T20:06:22.068Z,22.67
2023-05-21T20:08:48.876Z,25.35
2023-05-21T20:11:12.873Z,36.28
2023-05-21T20:13:36.284Z,30.42
2023-05-21T20:16:07.544Z,31.02
2023-05-21T20:18:31.111Z,32.08
2023-05-21T20:21:00.368Z,31.20
2023-05-21T20:23:31.298Z,30.38
2023-05-21T20:25:54.653Z,31.85
2023-05-21T20:29:10.563Z,29.05
2023-05-21T20:31:33.980Z,30.20
2023-05-21T20:33:58.731Z,27.48
2023-05-21T20:36:27.186Z,29.88
2023-05-21T20:38:57.187Z,29.85
2023-05-21T20:41:21.799Z,28.40
2023-05-21T20:44:25.869Z,27.48
2023-05-21T20:46:52.858Z,26.17
2023-05-21T20:49:17.750Z,29.42
2023-05-21T20:51:42.481Z,29.77
2023-05-21T20:54:06.414Z,33.25
2023-05-21T20:56:41.525Z,32.85
2023-05-21T20:59:11.955Z,33.83
2023-05-21T21:01:37.938Z,34.35
2023-05-21T21:04:01.520Z,32.95
2023-05-21T21:06:31.674Z,32.45
2023-05-21T21:08:57.009Z,34.83
2023-05-21T21:11:20.329Z,39.22
2023-05-21T21:13:43.895Z,33.50
2023-05-21T21:16:09.747Z,33.35
2023-05-21T21:18:33.289Z,39.78
2023-05-21T21:20:56.765Z,34.10
2023-05-21T21:23:20.011Z,32.33
2023-05-21T21:25:45.049Z,33.83
2023-05-21T21:28:08.550Z,37.40
2023-05-21T21:30:32.249Z,34.88
2023-05-21T21:32:55.779Z,31.88
2023-05-21T21:35:19.369Z,37.72
2023-05-21T21:37:42.778Z,52.10
2023-05-21T21:40:08.246Z,41.78
2023-05-21T21:42:33.286Z,43.28
2023-05-21T21:44:56.594Z,35.22
2023-05-21T21:47:19.947Z,39.58
2023-05-21T21:49:43.602Z,39.15
2023-05-21T21:52:08.124Z,32.78
2023-05-21T21:54:31.401Z,37.58
2023-05-21T21:56:55.018Z,31.33
2023-05-21T21:59:22.598Z,29.70
2023-05-21T22:01:46.073Z,26.92
2023-05-21T22:04:09.473Z,20.23
2023-05-21T22:06:33.201Z,18.75
2023-05-21T22:08:56.548Z,19.80
2023-05-21T22:11:19.956Z,18.95
2023-05-21T22:13:44.238Z,19.80
2023-05-21T22:16:09.100Z,24.55
2023-05-21T22:18:41.090Z,25.60
2023-05-21T22:21:09.559Z,23.50
2023-05-21T22:23:33.610Z,20.70
2023-05-21T22:25:56.918Z,20.67
2023-05-21T22:28:22.383Z,22.85
2023-05-21T22:30:45.740Z,22.92
2023-05-21T22:33:11.355Z,21.35
2023-05-21T22:35:34.703Z,21.13
2023-05-21T22:37:58.716Z,23.33
2023-05-21T22:40:21.980Z,17.02
2023-05-21T22:42:47.047Z,16.48
2023-05-21T22:45:19.360Z,19.02
2023-05-21T22:47:43.012Z,18.27
2023-05-21T22:50:59.098Z,17.20
2023-05-21T22:53:50.673Z,20.00
2023-05-21T22:56:30.430Z,22.38
2023-05-21T22:59:00.228Z,19.63
2023-05-21T23:02:16.471Z,20.83
2023-05-21T23:05:11.170Z,21.67
2023-05-21T23:08:27.047Z,20.67
2023-05-21T23:11:43.312Z,21.35
2023-05-21T23:14:06.864Z,22.90
2023-05-21T23:16:32.289Z,20.83
2023-05-21T23:19:52.311Z,20.33
2023-05-21T23:22:57.617Z,26.05
2023-05-21T23:25:23.566Z,21.45
2023-05-21T23:27:52.906Z,24.05
2023-05-21T23:30:16.915Z,20.77
2023-05-21T23:32:41.332Z,21.88
2023-05-21T23:35:09.329Z,22.70
2023-05-21T23:37:34.201Z,25.58
2023-05-21T23:39:57.470Z,24.83
2023-05-21T23:42:21.670Z,21.55
2023-05-21T23:44:45.112Z,20.55
2023-05-21T23:47:12.363Z,23.83
2023-05-21T23:49:37.176Z,21.67
2023-05-21T23:52:01.525Z,24.98
2023-05-21T23:54:27.463Z,21.45
2023-05-21T23:56:55.020Z,24.88
2023-05-21T23:59:18.708Z,25.67
